createdAt,value
2018-01-05T00:04:36.253Z,1000.3
2018-01-05T00:09:36.374Z,1000.2
2018-01-05T00:14:36.251Z,1000.2
2018-01-05T00:19:36.594Z,1000.2
2018-01-05T00:24:37.872Z,1000.2
2018-01-05T00:29:36.770Z,1000.3
2018-01-05T00:34:36.572Z,1000.8
2018-01-05T00:39:36.599Z,1001.8
2018-01-05T00:44:36.601Z,1002.2
2018-01-05T00:49:36.600Z,1002.5
2018-01-05T00:54:36.611Z,1002.5
2018-01-05T00:59:36.605Z,1002.6
2018-01-05T01:04:36.614Z,1002.6
2018-01-05T01:09:36.781Z,1002.7
2018-01-05T01:14:36.696Z,1002.8
2018-01-05T01:19:36.601Z,1002.8
2018-01-05T01:24:36.812Z,1002.8
2018-01-05T01:29:36.606Z,1003.4
2018-01-05T01:34:36.649Z,1003.3
2018-01-05T01:39:36.769Z,1003.4
2018-01-05T01:44:36.750Z,1003.5
2018-01-05T01:49:36.676Z,1003.1
2018-01-05T01:54:36.637Z,1003.2
2018-01-05T01:59:36.779Z,1003.4
2018-01-05T02:04:36.635Z,1003.7
2018-01-05T02:09:36.623Z,1003.8
2018-01-05T02:14:36.773Z,1003.8
2018-01-05T02:19:36.639Z,1003.7
2018-01-05T02:24:36.661Z,1003.7
2018-01-05T02:29:36.658Z,1003.8
2018-01-05T02:34:36.685Z,1004
2018-01-05T02:39:36.650Z,1004.4
2018-01-05T02:44:36.718Z,1004.4
2018-01-05T02:49:36.777Z,1004.5
2018-01-05T02:54:36.802Z,1004.4
2018-01-05T02:59:36.812Z,1004.5
2018-01-05T03:04:36.665Z,1004.6
2018-01-05T03:09:36.662Z,1004.6
2018-01-05T03:14:36.672Z,1004.8
2018-01-05T03:19:36.795Z,1005
2018-01-05T03:24:36.761Z,1005.1
2018-01-05T03:29:36.663Z,1005
2018-01-05T03:34:36.673Z,1004.9
2018-01-05T03:39:36.761Z,1005.3
2018-01-05T03:44:36.688Z,1005.4
2018-01-05T03:49:36.827Z,1005.6
2018-01-05T03:54:36.786Z,1005.5
2018-01-05T03:59:36.679Z,1005.6
2018-01-05T04:04:36.736Z,1005.8
2018-01-05T04:09:36.762Z,1005.7
2018-01-05T04:14:36.780Z,1005.8
2018-01-05T04:19:36.712Z,1005.8
2018-01-05T04:24:36.710Z,1005.8
2018-01-05T04:29:36.730Z,1005.8
2018-01-05T04:34:36.800Z,1006.1
2018-01-05T04:39:36.813Z,1006.3
2018-01-05T04:44:36.724Z,1006.4
2018-01-05T04:49:36.720Z,1006.5
2018-01-05T04:54:36.765Z,1006.5
2018-01-05T04:59:36.781Z,1006.6
2018-01-05T05:04:46.765Z,1006.7
2018-01-05T05:09:36.929Z,1006.8
2018-01-05T05:14:36.869Z,1006.9
2018-01-05T05:19:36.784Z,1007
2018-01-05T05:24:36.759Z,1007.1
2018-01-05T05:29:36.747Z,1007.3
2018-01-05T05:34:36.885Z,1007.2
2018-01-05T05:39:36.965Z,1007.4
2018-01-05T05:44:36.770Z,1007.4
2018-01-05T05:49:36.788Z,1007.4
2018-01-05T05:54:36.928Z,1007.3
2018-01-05T05:59:36.783Z,1007.5
2018-01-05T06:04:36.952Z,1007.7
2018-01-05T06:09:36.769Z,1007.7
2018-01-05T06:14:36.782Z,1007.7
2018-01-05T06:19:36.937Z,1007.7
2018-01-05T06:24:37.016Z,1007.8
2018-01-05T06:29:36.788Z,1007.8
2018-01-05T06:34:36.951Z,1007.8
2018-01-05T06:39:36.970Z,1007.8
2018-01-05T06:44:36.786Z,1007.9
2018-01-05T06:49:36.912Z,1008.1
2018-01-05T06:54:36.780Z,1007.9
2018-01-05T06:59:36.796Z,1008
2018-01-05T07:04:36.781Z,1008.2
2018-01-05T07:09:36.962Z,1008.3
2018-01-05T07:14:36.799Z,1008.3
2018-01-05T07:19:36.797Z,1008.2
2018-01-05T07:24:36.916Z,1008.2
2018-01-05T07:29:37.859Z,1008.2
2018-01-05T07:34:36.832Z,1008.2
2018-01-05T07:39:36.818Z,1008.1
2018-01-05T07:44:36.915Z,1008.1
2018-01-05T07:49:36.824Z,1008.1
2018-01-05T07:54:36.818Z,1008
2018-01-05T07:59:36.825Z,1008
2018-01-05T08:04:36.825Z,1008.1
2018-01-05T08:09:36.993Z,1008
2018-01-05T08:14:37.016Z,1008.1
2018-01-05T08:19:36.849Z,1008.2
2018-01-05T08:24:36.981Z,1008.1
2018-01-05T08:29:37.026Z,1008
2018-01-05T08:34:36.925Z,1008.1
2018-01-05T08:39:36.996Z,1008
2018-01-05T08:44:36.878Z,1008
2018-01-05T08:49:37.064Z,1007.9
2018-01-05T08:54:36.850Z,1007.9
2018-01-05T08:59:37.041Z,1007.8
2018-01-05T09:04:36.822Z,1007.7
2018-01-05T09:09:36.894Z,1007.7
2018-01-05T09:14:37.007Z,1007.6
2018-01-05T09:19:36.996Z,1007.6
2018-01-05T09:24:36.916Z,1007.6
2018-01-05T09:29:36.888Z,1007.6
2018-01-05T09:34:36.885Z,1007.5
2018-01-05T09:39:37.042Z,1007.5
2018-01-05T09:44:36.861Z,1007.4
2018-01-05T09:49:36.909Z,1007.4
2018-01-05T09:54:37.057Z,1007.2
2018-01-05T09:59:36.918Z,1007
2018-01-05T10:04:37.104Z,1006.9
2018-01-05T10:09:36.898Z,1006.8
2018-01-05T10:14:37.071Z,1006.7
2018-01-05T10:19:37.070Z,1006.8
2018-01-05T10:24:36.938Z,1006.8
2018-01-05T10:29:36.900Z,1006.6
2018-01-05T10:34:37.062Z,1006.5
2018-01-05T10:39:36.898Z,1006.4
2018-01-05T10:44:37.082Z,1006.3
2018-01-05T10:49:38.059Z,1006
2018-01-05T10:54:37.095Z,1006.1
2018-01-05T10:59:37.182Z,1006.1
2018-01-05T11:04:37.116Z,1006
2018-01-05T11:09:37.083Z,1005.9
2018-01-05T11:14:36.935Z,1005.8
2018-01-05T11:19:36.940Z,1005.7
2018-01-05T11:24:37.033Z,1005.8
2018-01-05T11:29:36.931Z,1005.6
2018-01-05T11:34:36.942Z,1005.6
2018-01-05T11:39:37.026Z,1005.6
2018-01-05T11:44:47.038Z,1005.5
2018-01-05T11:49:37.099Z,1005.5
2018-01-05T11:54:37.139Z,1005.5
2018-01-05T11:59:37.068Z,1005.5
2018-01-05T12:04:36.983Z,1005.5
2018-01-05T12:09:36.945Z,1005.5
2018-01-05T12:14:37.213Z,1005.4
2018-01-05T12:19:36.991Z,1005.4
2018-01-05T12:24:37.112Z,1005.3
2018-01-05T12:29:37.151Z,1005.2
2018-01-05T12:34:37.015Z,1005.2
2018-01-05T12:39:37.039Z,1005.2
2018-01-05T12:44:37.214Z,1005.1
2018-01-05T12:49:37.231Z,1005.1
2018-01-05T12:54:37.034Z,1005.1
2018-01-05T12:59:37.169Z,1005.1
2018-01-05T13:04:37.025Z,1005.1
2018-01-05T13:09:37.117Z,1005
2018-01-05T13:14:37.096Z,1004.9
2018-01-05T13:19:37.144Z,1005
2018-01-05T13:24:37.027Z,1005
2018-01-05T13:29:36.994Z,1005
2018-01-05T13:34:37.169Z,1005
2018-01-05T13:39:37.053Z,1005
2018-01-05T13:44:37.021Z,1005.1
2018-01-05T13:49:37.124Z,1005.1
2018-01-05T13:54:37.235Z,1005.1
2018-01-05T13:59:37.084Z,1005
2018-01-05T14:04:37.090Z,1005
2018-01-05T14:09:37.052Z,1004.9
2018-01-05T14:14:37.207Z,1004.7
2018-01-05T14:19:37.221Z,1004.8
2018-01-05T14:24:37.121Z,1004.8
2018-01-05T14:29:37.117Z,1004.9
2018-01-05T14:34:37.093Z,1005.1
2018-01-05T14:39:37.222Z,1005.2
2018-01-05T14:44:37.063Z,1005.4
2018-01-05T14:49:37.036Z,1005.5
2018-01-05T14:54:37.157Z,1005.5
2018-01-05T14:59:37.091Z,1005.6
2018-01-05T15:04:37.233Z,1005.5
2018-01-05T15:09:38.279Z,1005.6
2018-01-05T15:14:38.099Z,1005.9
2018-01-05T15:19:37.301Z,1006.1
2018-01-05T15:24:37.284Z,1006.2
2018-01-05T15:29:37.242Z,1006.2
2018-01-05T15:34:37.327Z,1006.1
2018-01-05T15:39:37.316Z,1006.2
2018-01-05T15:44:37.287Z,1006.2
2018-01-05T15:49:37.253Z,1005.8
2018-01-05T15:54:37.290Z,1005.8
2018-01-05T15:59:37.306Z,1005.8
2018-01-05T16:04:37.321Z,1006.2
2018-01-05T16:09:37.292Z,1006.4
2018-01-05T16:14:37.322Z,1006.3
2018-01-05T16:19:37.345Z,1006.4
2018-01-05T16:24:37.334Z,1006.4
2018-01-05T16:29:37.287Z,1006.4
2018-01-05T16:34:37.297Z,1006.4
2018-01-05T16:39:37.313Z,1006.5
2018-01-05T16:44:37.316Z,1006.3
2018-01-05T16:49:37.315Z,1006.4
2018-01-05T16:54:37.358Z,1006.5
2018-01-05T16:59:37.296Z,1006.6
2018-01-05T17:04:37.300Z,1006.4
2018-01-05T17:09:37.328Z,1006.4
2018-01-05T17:14:37.320Z,1006.3
2018-01-05T17:19:37.374Z,1006.2
2018-01-05T17:24:37.364Z,1006.3
2018-01-05T17:29:37.376Z,1006.3
2018-01-05T17:34:37.371Z,1006.3
2018-01-05T17:39:37.384Z,1006.3
2018-01-05T17:44:37.340Z,1006.2
2018-01-05T17:49:37.426Z,1006.3
2018-01-05T17:54:37.334Z,1006.3
2018-01-05T17:59:37.322Z,1006.4
2018-01-05T18:04:37.406Z,1006.4
2018-01-05T18:09:37.440Z,1006.5
2018-01-05T18:14:37.408Z,1006.4
2018-01-05T18:19:37.342Z,1006.5
2018-01-05T18:24:37.415Z,1006.6
2018-01-05T18:29:37.376Z,1006.7
2018-01-05T18:34:37.405Z,1006.7
2018-01-05T18:39:37.419Z,1006.7
2018-01-05T18:44:37.415Z,1006.8
2018-01-05T18:49:37.439Z,1007
2018-01-05T18:54:37.392Z,1006.8
2018-01-05T18:59:37.432Z,1007
2018-01-05T19:04:37.519Z,1007.1
2018-01-05T19:09:37.556Z,1007.1
2018-01-05T19:14:37.375Z,1007.2
2018-01-05T19:19:37.448Z,1007.3
2018-01-05T19:24:37.534Z,1007.4
2018-01-05T19:29:37.597Z,1007.5
2018-01-05T19:34:37.458Z,1007.4
2018-01-05T19:39:37.433Z,1007.4
2018-01-05T19:44:37.563Z,1007.5
2018-01-05T19:49:37.580Z,1007.5
2018-01-05T19:54:37.512Z,1007.5
2018-01-05T19:59:37.525Z,1007.5
2018-01-05T20:04:37.556Z,1007.6
2018-01-05T20:09:37.532Z,1007.6
2018-01-05T20:14:37.449Z,1007.6
2018-01-05T20:19:37.549Z,1007.6
2018-01-05T20:24:37.525Z,1007.6
2018-01-05T20:29:37.423Z,1007.7
2018-01-05T20:34:37.461Z,1007.6
2018-01-05T20:39:37.669Z,1007.6
2018-01-05T20:44:37.902Z,1007.9
2018-01-05T20:49:39.196Z,1007.8
2018-01-05T20:54:37.928Z,1007.9
2018-01-05T20:59:38.112Z,1007.8
2018-01-05T21:04:38.001Z,1007.8
2018-01-05T21:09:37.922Z,1007.8
2018-01-05T21:14:37.977Z,1007.8
2018-01-05T21:19:37.936Z,1008
2018-01-05T21:24:38.069Z,1007.8
2018-01-05T21:29:38.000Z,1008
2018-01-05T21:34:37.997Z,1008.1
2018-01-05T21:39:37.985Z,1008.1
2018-01-05T21:44:38.020Z,1008.2
2018-01-05T21:49:38.034Z,1008.2
2018-01-05T21:54:37.947Z,1008.2
2018-01-05T21:59:37.988Z,1008.2
2018-01-05T22:04:37.948Z,1008.3
2018-01-05T22:09:37.964Z,1008.3
2018-01-05T22:14:38.044Z,1008.1
2018-01-05T22:19:38.021Z,1008.3
2018-01-05T22:24:37.984Z,1008.4
2018-01-05T22:29:37.968Z,1008.2
2018-01-05T22:34:37.980Z,1008.4
2018-01-05T22:39:37.997Z,1008.3
2018-01-05T22:44:37.985Z,1008.3
2018-01-05T22:49:37.988Z,1008.3
2018-01-05T22:54:38.090Z,1008.3
2018-01-05T22:59:37.983Z,1008.4
2018-01-05T23:04:37.994Z,1008.4
2018-01-05T23:09:38.077Z,1008.4
2018-01-05T23:14:38.011Z,1008.4
2018-01-05T23:19:38.008Z,1008.5
2018-01-05T23:24:37.982Z,1008.7
2018-01-05T23:29:44.735Z,1008.7
2018-01-05T23:34:39.097Z,1008.6
2018-01-05T23:39:38.185Z,1008.6
2018-01-05T23:44:38.016Z,1008.7
2018-01-05T23:49:38.037Z,1008.7
2018-01-05T23:54:37.995Z,1008.8
2018-01-05T23:59:38.010Z,1008.9
